createdAt,value
2022-08-19T00:01:22.008Z,96.09
2022-08-19T00:06:30.746Z,96.04
2022-08-19T00:11:39.853Z,95.94001
2022-08-19T00:16:48.151Z,96.01001
2022-08-19T00:21:56.250Z,96.06
2022-08-19T00:27:03.410Z,95.99
2022-08-19T00:32:11.925Z,96.07
2022-08-19T00:37:20.007Z,96.17
2022-08-19T00:42:27.382Z,96.1
2022-08-19T00:47:35.770Z,96.1
2022-08-19T00:52:43.696Z,96.16
2022-08-19T00:57:51.722Z,96.17
2022-08-19T01:03:00.206Z,96.35
2022-08-19T01:08:07.625Z,96.29001
2022-08-19T01:13:15.096Z,96.27
2022-08-19T01:18:22.886Z,96.33
2022-08-19T01:23:29.500Z,96.25
2022-08-19T01:28:37.083Z,96.17
2022-08-19T01:33:50.868Z,96.11
2022-08-19T01:38:58.218Z,96.18
2022-08-19T01:44:06.267Z,96.3
2022-08-19T01:49:14.481Z,96.29001
2022-08-19T01:54:23.438Z,96.4
2022-08-19T01:59:32.749Z,96.32
2022-08-19T02:04:41.041Z,96.29001
2022-08-19T02:09:49.151Z,96.48001
2022-08-19T02:14:56.871Z,96.61
2022-08-19T02:20:04.572Z,96.47
2022-08-19T02:25:12.371Z,96.44
2022-08-19T02:30:19.328Z,96.50001
2022-08-19T02:35:27.448Z,96.49
2022-08-19T02:40:34.597Z,96.58
2022-08-19T02:45:42.591Z,96.7
2022-08-19T02:55:47.634Z,96.67
2022-08-19T03:00:53.682Z,96.47
2022-08-19T03:06:01.828Z,96.53
2022-08-19T03:11:09.017Z,96.48001
2022-08-19T03:16:17.375Z,96.46
2022-08-19T03:21:24.898Z,96.57001
2022-08-19T03:26:31.919Z,96.51999
2022-08-19T03:31:39.767Z,96.58999
2022-08-19T03:36:46.954Z,96.61
2022-08-19T03:41:54.137Z,96.48001
2022-08-19T03:47:02.823Z,96.41001
2022-08-19T03:52:09.995Z,96.38
2022-08-19T03:57:17.650Z,96.78
2022-08-19T04:02:24.411Z,96.92
2022-08-19T04:07:32.977Z,97.17
2022-08-19T04:12:41.584Z,97.25
2022-08-19T04:17:49.947Z,97.34
2022-08-19T04:22:57.529Z,97.42
2022-08-19T04:28:05.170Z,97.44
2022-08-19T04:33:13.196Z,97.44
2022-08-19T04:38:21.016Z,97.48
2022-08-19T04:43:28.484Z,97.53
2022-08-19T04:48:36.063Z,97.64
2022-08-19T04:53:44.706Z,97.7
2022-08-19T04:58:52.565Z,97.80001
2022-08-19T05:04:00.250Z,97.83
2022-08-19T05:09:09.118Z,97.87001
2022-08-19T05:14:16.542Z,97.80001
2022-08-19T05:19:23.736Z,97.68001
2022-08-19T05:24:32.178Z,97.47001
2022-08-19T05:29:41.605Z,97.35
2022-08-19T05:34:50.963Z,97.04
2022-08-19T05:40:00.276Z,97.03
2022-08-19T05:45:07.423Z,97.15
2022-08-19T05:50:15.290Z,97.34
2022-08-19T05:55:23.312Z,97.56
2022-08-19T06:00:29.726Z,97.80001
2022-08-19T06:05:36.892Z,97.95
2022-08-19T06:10:45.275Z,98.11
2022-08-19T06:15:53.696Z,98.18
2022-08-19T06:21:03.651Z,98.25
2022-08-19T06:26:10.819Z,98.17
2022-08-19T06:31:18.240Z,98.17
2022-08-19T06:36:25.951Z,98.18
2022-08-19T06:41:34.713Z,98.21
2022-08-19T06:46:42.132Z,98.26
2022-08-19T06:51:50.438Z,98.2
2022-08-19T06:56:58.160Z,98.14
2022-08-19T07:02:06.442Z,97.31
2022-08-19T07:07:15.928Z,96.89
2022-08-19T07:12:24.789Z,93.5
2022-08-19T07:17:32.525Z,93.54
2022-08-19T07:22:40.812Z,93.56
2022-08-19T07:27:48.907Z,93.62
2022-08-19T07:32:55.921Z,93.61
2022-08-19T07:38:03.781Z,93.7
2022-08-19T07:43:12.093Z,93.77
2022-08-19T07:48:20.211Z,93.84
2022-08-19T07:53:27.900Z,80.32001
2022-08-19T07:58:36.891Z,74.38
2022-08-19T08:03:44.238Z,67.24
2022-08-19T08:08:50.814Z,64.69
2022-08-19T08:13:59.193Z,63.51
2022-08-19T08:19:07.370Z,61.94
2022-08-19T08:24:16.077Z,64.8
2022-08-19T08:29:23.417Z,60.66
2022-08-19T08:34:31.449Z,59.03
2022-08-19T08:39:39.670Z,59.02
2022-08-19T08:44:47.451Z,56.05
2022-08-19T08:49:54.784Z,54.25
2022-08-19T08:55:01.339Z,55.38
2022-08-19T09:00:08.543Z,56.53
2022-08-19T09:05:15.090Z,60.46
2022-08-19T09:10:23.583Z,55.82
2022-08-19T09:15:30.782Z,51.77
2022-08-19T09:20:38.604Z,52.72
2022-08-19T09:25:47.609Z,55.32
2022-08-19T09:30:55.187Z,57.36
2022-08-19T09:36:03.293Z,60.01
2022-08-19T09:41:10.653Z,62.56
2022-08-19T09:46:17.212Z,63.22
2022-08-19T09:51:24.564Z,63.32
2022-08-19T09:56:32.464Z,66.63
2022-08-19T10:02:21.714Z,67.14
2022-08-19T10:07:30.044Z,68.85
2022-08-19T10:12:37.660Z,67.68
2022-08-19T10:17:44.950Z,66.43
2022-08-19T10:22:54.253Z,64.55
2022-08-19T10:28:01.010Z,64.52
2022-08-19T10:33:09.019Z,64.23
2022-08-19T10:38:21.967Z,60.47
2022-08-19T10:43:31.528Z,61.53
2022-08-19T10:48:39.776Z,62.72
2022-08-19T10:53:47.133Z,63.62
2022-08-19T10:58:54.566Z,58.15
2022-08-19T11:04:01.694Z,52.56
2022-08-19T11:09:10.381Z,46.35
2022-08-19T11:14:18.091Z,44.23
2022-08-19T11:19:26.301Z,42.16
2022-08-19T11:24:33.866Z,39.87
2022-08-19T11:29:41.686Z,39.37
2022-08-19T11:34:48.343Z,39.2
2022-08-19T11:39:56.138Z,37.53
2022-08-19T11:45:03.450Z,41.22
2022-08-19T11:50:10.407Z,45.12
2022-08-19T11:55:18.217Z,49.73
2022-08-19T12:00:25.958Z,52.0
2022-08-19T12:05:34.998Z,53.76
2022-08-19T12:10:42.796Z,55.24
2022-08-19T12:15:49.985Z,57.17
2022-08-19T12:20:57.184Z,58.09
2022-08-19T12:26:05.017Z,59.4
2022-08-19T12:31:12.377Z,60.92
2022-08-19T12:36:19.996Z,59.68
2022-08-19T12:41:29.130Z,59.68
2022-08-19T12:46:35.768Z,58.04
2022-08-19T12:51:43.617Z,56.69
2022-08-19T12:56:51.825Z,55.03
2022-08-19T13:01:59.853Z,55.66
2022-08-19T13:07:07.741Z,56.73
2022-08-19T13:12:14.977Z,57.74
2022-08-19T13:17:22.652Z,58.91
2022-08-19T13:22:33.345Z,60.16
2022-08-19T13:27:40.596Z,61.32
2022-08-19T13:32:47.588Z,61.28
2022-08-19T13:37:55.796Z,62.0
2022-08-19T13:43:02.861Z,63.02
2022-08-19T13:48:09.827Z,63.42
2022-08-19T13:53:17.659Z,63.34
2022-08-19T13:58:24.856Z,63.78
2022-08-19T14:03:33.732Z,62.59
2022-08-19T14:08:41.466Z,61.59
2022-08-19T14:13:50.114Z,59.64
2022-08-19T14:19:00.567Z,58.61
2022-08-19T14:24:10.744Z,58.54
2022-08-19T14:29:18.618Z,57.28
2022-08-19T14:34:26.535Z,57.83
2022-08-19T14:39:33.978Z,56.14
2022-08-19T14:44:41.811Z,55.0
2022-08-19T14:49:50.087Z,54.0
2022-08-19T14:54:56.885Z,53.56
2022-08-19T15:00:04.696Z,51.68
2022-08-19T15:05:17.014Z,50.2
2022-08-19T15:10:22.969Z,50.46
2022-08-19T15:15:30.517Z,47.59
2022-08-19T15:20:37.370Z,48.87
2022-08-19T15:25:44.242Z,47.95
2022-08-19T15:30:51.714Z,48.0
2022-08-19T15:35:58.277Z,47.51
2022-08-19T15:41:05.490Z,46.55
2022-08-19T15:46:13.288Z,46.71
2022-08-19T15:51:19.894Z,46.5
2022-08-19T15:56:27.130Z,47.92
2022-08-19T16:01:34.728Z,48.86
2022-08-19T16:06:41.660Z,50.36
2022-08-19T16:11:49.818Z,49.18
2022-08-19T16:16:57.201Z,50.83
2022-08-19T16:22:05.667Z,51.09
2022-08-19T16:27:12.879Z,50.88
2022-08-19T16:32:21.185Z,50.96
2022-08-19T16:37:27.898Z,51.73
2022-08-19T16:42:35.824Z,52.58
2022-08-19T16:47:43.014Z,53.17
2022-08-19T16:52:51.122Z,54.58
2022-08-19T16:57:59.183Z,55.68
2022-08-19T17:03:08.094Z,58.0
2022-08-19T17:08:15.614Z,59.41
2022-08-19T17:13:23.253Z,59.74
2022-08-19T17:18:30.615Z,59.98
2022-08-19T17:23:38.650Z,57.5
2022-08-19T17:28:45.049Z,57.35
2022-08-19T17:33:52.217Z,57.41
2022-08-19T17:38:58.776Z,58.07
2022-08-19T17:44:07.829Z,58.62
2022-08-19T17:49:15.669Z,59.47
2022-08-19T17:54:23.317Z,60.44
2022-08-19T17:59:30.188Z,61.18
2022-08-19T18:04:38.326Z,61.96
2022-08-19T18:09:46.443Z,62.92
2022-08-19T18:14:54.294Z,63.54
2022-08-19T18:20:02.492Z,64.15
2022-08-19T18:25:09.375Z,64.81
2022-08-19T18:30:17.441Z,64.91001
2022-08-19T18:35:25.384Z,66.61
2022-08-19T18:40:32.477Z,66.89
2022-08-19T18:45:40.461Z,66.65
2022-08-19T18:50:47.293Z,68.12
2022-08-19T18:55:55.648Z,68.51
2022-08-19T19:01:03.323Z,68.58
2022-08-19T19:06:11.888Z,68.73001
2022-08-19T19:11:19.764Z,69.22
2022-08-19T19:16:26.879Z,69.91001
2022-08-19T19:21:35.147Z,70.52
2022-08-19T19:26:43.038Z,71.22
2022-08-19T19:31:49.713Z,71.32
2022-08-19T19:36:57.211Z,70.8
2022-08-19T19:42:04.378Z,72.19
2022-08-19T19:47:12.842Z,72.21
2022-08-19T19:52:20.551Z,72.56
2022-08-19T19:57:28.681Z,73.37
2022-08-19T20:02:36.076Z,73.53
2022-08-19T20:07:44.726Z,72.89
2022-08-19T20:12:52.051Z,73.08
2022-08-19T20:18:00.411Z,73.28
2022-08-19T20:23:08.639Z,73.33
2022-08-19T20:28:16.425Z,73.86
2022-08-19T20:33:23.462Z,74.58
2022-08-19T20:38:30.669Z,75.01
2022-08-19T20:43:37.864Z,75.78
2022-08-19T20:48:45.058Z,75.98001
2022-08-19T20:53:52.257Z,75.68
2022-08-19T20:58:59.716Z,75.56
2022-08-19T21:04:07.814Z,75.63
2022-08-19T21:09:16.197Z,75.82
2022-08-19T21:14:25.040Z,76.35
2022-08-19T21:19:33.401Z,77.58
2022-08-19T21:24:40.601Z,78.12
2022-08-19T21:29:49.083Z,78.06
2022-08-19T21:34:56.851Z,77.62001
2022-08-19T21:40:04.555Z,77.6
2022-08-19T21:45:13.118Z,77.78
2022-08-19T21:50:20.463Z,78.56
2022-08-19T21:55:26.934Z,85.26
2022-08-19T22:00:34.172Z,86.89
2022-08-19T22:05:42.277Z,87.80001
2022-08-19T22:10:56.446Z,88.74
2022-08-19T22:16:05.119Z,89.86
2022-08-19T22:21:13.727Z,90.89
2022-08-19T22:26:20.376Z,91.65
2022-08-19T22:31:27.726Z,91.90001
2022-08-19T22:36:35.562Z,92.16001
2022-08-19T22:41:43.761Z,92.46
2022-08-19T22:46:50.582Z,92.73001
2022-08-19T22:51:58.300Z,92.9
2022-08-19T22:57:09.561Z,92.88
2022-08-19T22:58:43.078Z,92.83
2022-08-19T23:03:49.977Z,92.81
2022-08-19T23:08:56.572Z,93.14
2022-08-19T23:14:05.015Z,93.28
2022-08-19T23:19:13.101Z,93.48001
2022-08-19T23:24:21.724Z,93.51001
2022-08-19T23:29:29.769Z,93.52
2022-08-19T23:34:37.050Z,93.6
2022-08-19T23:39:43.573Z,93.75
2022-08-19T23:44:51.450Z,93.92
2022-08-19T23:50:00.406Z,94.00001
2022-08-19T23:55:09.514Z,93.98001
